createdAt,value
2022-09-24T00:01:15.298Z,99062.38
2022-09-24T00:03:48.067Z,99063.38
2022-09-24T00:06:14.872Z,99057.84
2022-09-24T00:08:42.174Z,99055.03
2022-09-24T00:11:12.198Z,99041.84
2022-09-24T00:13:39.414Z,99054.31
2022-09-24T00:16:10.512Z,99040.38
2022-09-24T00:18:37.977Z,99034.09
2022-09-24T00:21:27.001Z,99043.28
2022-09-24T00:23:56.793Z,99045.44
2022-09-24T00:26:42.835Z,99037.09
2022-09-24T00:29:11.300Z,99035.28
2022-09-24T00:31:38.227Z,99045.09
2022-09-24T00:34:05.377Z,99027.44
2022-09-24T00:36:32.184Z,99034.22
2022-09-24T00:39:00.025Z,99032.50
2022-09-24T00:41:29.863Z,99039.66
2022-09-24T00:43:57.557Z,99029.72
2022-09-24T00:46:41.390Z,99038.31
2022-09-24T00:49:14.869Z,99028.25
2022-09-24T00:51:44.173Z,99029.22
2022-09-24T00:54:16.115Z,99009.88
2022-09-24T00:56:45.124Z,99030.66
2022-09-24T00:59:17.485Z,99026.88
2022-09-24T01:01:46.504Z,99008.75
2022-09-24T01:04:14.804Z,99010.03
2022-09-24T01:06:41.714Z,98983.69
2022-09-24T01:09:09.283Z,98994.91
2022-09-24T01:12:08.423Z,99012.91
2022-09-24T01:14:54.745Z,99016.41
2022-09-24T01:17:39.657Z,99008.53
2022-09-24T01:20:25.100Z,99016.66
2022-09-24T01:26:00.213Z,99006.22
2022-09-24T01:28:35.790Z,98999.91
2022-09-24T01:31:24.005Z,98971.47
2022-09-24T01:33:54.610Z,98999.78
2022-09-24T01:36:22.999Z,98964.31
2022-09-24T01:38:53.493Z,98980.91
2022-09-24T01:41:21.915Z,98994.84
2022-09-24T01:43:49.483Z,98980.06
2022-09-24T01:46:19.813Z,98976.16
2022-09-24T01:48:47.189Z,98973.75
2022-09-24T01:51:23.709Z,98978.22
2022-09-24T01:54:12.000Z,98981.50
2022-09-24T01:57:22.313Z,98969.03
2022-09-24T02:00:01.573Z,98982.84
2022-09-24T02:02:39.836Z,98980.44
2022-09-24T02:05:19.875Z,98973.78
2022-09-24T02:07:52.647Z,98986.63
2022-09-24T02:10:21.102Z,98990.25
2022-09-24T02:12:56.849Z,98983.44
2022-09-24T02:15:32.823Z,98975.44
2022-09-24T02:18:06.147Z,98980.91
2022-09-24T02:20:36.246Z,98958.41
2022-09-24T02:23:04.147Z,98986.38
2022-09-24T02:25:39.575Z,98979.34
2022-09-24T02:28:06.264Z,98953.56
2022-09-24T02:30:40.571Z,98965.41
2022-09-24T02:33:31.082Z,98962.50
2022-09-24T02:35:57.917Z,98951.59
2022-09-24T02:38:24.595Z,98957.53
2022-09-24T02:40:53.241Z,98956.94
2022-09-24T02:43:20.135Z,98965.25
2022-09-24T02:45:46.869Z,98955.53
2022-09-24T02:48:13.588Z,98948.81
2022-09-24T02:50:40.313Z,98953.97
2022-09-24T02:53:07.057Z,98967.69
2022-09-24T02:55:33.797Z,98961.03
2022-09-24T02:58:00.514Z,98951.13
2022-09-24T03:00:27.216Z,98958.78
2022-09-24T03:02:54.180Z,98957.63
2022-09-24T03:05:22.100Z,98945.28
2022-09-24T03:07:48.832Z,98948.22
2022-09-24T03:10:15.563Z,98927.09
2022-09-24T03:12:43.882Z,98922.97
2022-09-24T03:15:11.134Z,98936.69
2022-09-24T03:17:37.917Z,98936.47
2022-09-24T03:20:05.164Z,98936.84
2022-09-24T03:22:31.878Z,98941.56
2022-09-24T03:24:58.573Z,98953.91
2022-09-24T03:27:25.382Z,98922.59
2022-09-24T03:30:10.607Z,98919.31
2022-09-24T03:32:39.379Z,98943.25
2022-09-24T03:35:06.396Z,98929.94
2022-09-24T03:37:36.665Z,98925.19
2022-09-24T03:40:06.007Z,98934.00
2022-09-24T03:42:34.282Z,98933.66
2022-09-24T03:45:01.150Z,98926.78
2022-09-24T03:47:28.372Z,98943.50
2022-09-24T03:49:55.184Z,98927.63
2022-09-24T03:52:21.908Z,98907.00
2022-09-24T03:54:48.666Z,98932.16
2022-09-24T03:57:15.454Z,98917.53
2022-09-24T03:59:43.430Z,98936.78
2022-09-24T04:02:11.685Z,98933.75
2022-09-24T04:04:38.774Z,98926.06
2022-09-24T04:07:06.048Z,98910.69
2022-09-24T04:09:32.783Z,98925.31
2022-09-24T04:11:59.513Z,98918.19
2022-09-24T04:14:26.183Z,98930.78
2022-09-24T04:16:53.725Z,98913.84
2022-09-24T04:19:20.973Z,98912.63
2022-09-24T04:21:47.761Z,98915.16
2022-09-24T04:24:14.542Z,98910.69
2022-09-24T04:26:41.203Z,98915.66
2022-09-24T04:29:08.198Z,98905.72
2022-09-24T04:31:35.004Z,98927.16
2022-09-24T04:34:02.139Z,98929.81
2022-09-24T04:36:28.836Z,98917.94
2022-09-24T04:38:57.123Z,98903.78
2022-09-24T04:41:23.822Z,98912.13
2022-09-24T04:43:51.466Z,98916.75
2022-09-24T04:46:19.362Z,98908.50
2022-09-24T04:48:46.146Z,98914.31
2022-09-24T04:51:12.854Z,98900.31
2022-09-24T04:53:39.634Z,98907.06
2022-09-24T04:56:12.075Z,98902.81
2022-09-24T04:58:39.981Z,98906.94
2022-09-24T05:01:06.908Z,98905.97
2022-09-24T05:03:33.803Z,98900.69
2022-09-24T05:06:02.116Z,98899.94
2022-09-24T05:08:30.799Z,98916.97
2022-09-24T05:10:57.570Z,98923.75
2022-09-24T05:13:24.254Z,98918.56
2022-09-24T05:15:51.119Z,98880.94
2022-09-24T05:18:17.851Z,98917.47
2022-09-24T05:20:44.626Z,98911.06
2022-09-24T05:23:11.352Z,98912.88
2022-09-24T05:25:58.044Z,98906.94
2022-09-24T05:28:24.933Z,98925.34
2022-09-24T05:30:51.705Z,98932.97
2022-09-24T05:33:18.555Z,98926.75
2022-09-24T05:35:45.261Z,98921.56
2022-09-24T05:38:11.934Z,98936.91
2022-09-24T05:40:50.858Z,98929.75
2022-09-24T05:43:19.487Z,98937.06
2022-09-24T05:45:46.485Z,98937.19
2022-09-24T05:48:13.449Z,98930.47
2022-09-24T05:50:40.276Z,98931.03
2022-09-24T05:53:07.190Z,98934.28
2022-09-24T05:55:33.874Z,98911.28
2022-09-24T05:58:11.000Z,98924.47
2022-09-24T06:00:38.184Z,98922.53
2022-09-24T06:03:13.855Z,98923.72
2022-09-24T06:05:48.653Z,98910.38
2022-09-24T06:08:19.975Z,98924.13
2022-09-24T06:10:47.510Z,98898.94
2022-09-24T06:13:18.267Z,98927.63
2022-09-24T06:15:45.815Z,98906.88
2022-09-24T06:18:13.020Z,98927.88
2022-09-24T06:20:40.365Z,98916.56
2022-09-24T06:23:07.899Z,98913.75
2022-09-24T06:25:34.834Z,98913.94
2022-09-24T06:28:04.372Z,98891.81
2022-09-24T06:30:34.660Z,98912.81
2022-09-24T06:33:07.347Z,98901.59
2022-09-24T06:35:36.237Z,98913.06
2022-09-24T06:38:04.028Z,98908.53
2022-09-24T06:40:36.234Z,98909.13
2022-09-24T06:43:03.983Z,98904.63
2022-09-24T06:45:30.979Z,98900.97
2022-09-24T06:48:00.135Z,98911.09
2022-09-24T06:50:29.318Z,98887.91
2022-09-24T06:52:59.432Z,98895.91
2022-09-24T06:55:26.699Z,98910.38
2022-09-24T06:58:15.739Z,98908.41
2022-09-24T07:00:43.332Z,98917.28
2022-09-24T07:03:16.812Z,98908.97
2022-09-24T07:05:44.142Z,98903.19
2022-09-24T07:08:10.972Z,98908.22
2022-09-24T07:10:42.322Z,98905.91
2022-09-24T07:13:11.292Z,98907.72
2022-09-24T07:15:38.157Z,98876.53
2022-09-24T07:18:05.016Z,98881.53
2022-09-24T07:20:33.621Z,98879.22
2022-09-24T07:23:00.423Z,98888.56
2022-09-24T07:25:27.221Z,98881.97
2022-09-24T07:27:54.069Z,98851.00
2022-09-24T07:30:20.874Z,98886.88
2022-09-24T07:32:50.670Z,98842.44
2022-09-24T07:35:18.453Z,98880.78
2022-09-24T07:37:45.192Z,98877.56
2022-09-24T07:40:12.088Z,98839.22
2022-09-24T07:42:47.026Z,98881.47
2022-09-24T07:45:13.748Z,98874.97
2022-09-24T07:47:40.614Z,98888.31
2022-09-24T07:50:07.665Z,98864.22
2022-09-24T07:52:34.360Z,98891.03
2022-09-24T07:55:01.224Z,98856.38
2022-09-24T07:57:28.104Z,98893.78
2022-09-24T07:59:54.802Z,98905.94
2022-09-24T08:02:21.514Z,98909.31
2022-09-24T08:04:49.217Z,98917.91
2022-09-24T08:07:15.958Z,98898.91
2022-09-24T08:09:42.682Z,98893.03
2022-09-24T08:12:11.340Z,98875.66
2022-09-24T08:14:38.083Z,98913.22
2022-09-24T08:17:04.785Z,98904.81
2022-09-24T08:19:33.265Z,98918.47
2022-09-24T08:22:00.165Z,98904.97
2022-09-24T08:24:26.857Z,98905.19
2022-09-24T08:26:53.555Z,98886.06
2022-09-24T08:29:22.395Z,98877.50
2022-09-24T08:31:49.337Z,98896.09
2022-09-24T08:34:16.182Z,98879.00
2022-09-24T08:36:43.466Z,98889.56
2022-09-24T08:39:10.672Z,98875.31
2022-09-24T08:41:46.347Z,98886.09
2022-09-24T08:45:00.256Z,98881.97
2022-09-24T08:47:48.356Z,98901.38
2022-09-24T08:50:17.537Z,98899.44
2022-09-24T08:52:49.741Z,98886.53
2022-09-24T08:55:46.186Z,98897.63
2022-09-24T08:58:47.535Z,98898.66
2022-09-24T09:01:22.269Z,98891.00
2022-09-24T09:04:34.324Z,98884.28
2022-09-24T09:07:21.729Z,98888.75
2022-09-24T09:10:03.887Z,98876.88
2022-09-24T09:12:34.426Z,98877.84
2022-09-24T09:15:24.884Z,98870.50
2022-09-24T09:18:16.586Z,98866.13
2022-09-24T09:20:45.836Z,98854.94
2022-09-24T09:23:17.896Z,98859.56
2022-09-24T09:25:53.284Z,98862.19
2022-09-24T09:28:20.549Z,98830.28
2022-09-24T09:30:53.248Z,98860.31
2022-09-24T09:33:24.784Z,98848.88
2022-09-24T09:35:54.438Z,98858.22
2022-09-24T09:38:29.964Z,98846.66
2022-09-24T09:41:06.919Z,98838.38
2022-09-24T09:43:33.921Z,98828.31
2022-09-24T09:46:19.146Z,98832.84
2022-09-24T09:48:52.426Z,98836.38
2022-09-24T09:51:23.225Z,98825.94
2022-09-24T09:53:57.894Z,98841.31
2022-09-24T09:56:35.203Z,98832.56
2022-09-24T09:59:19.127Z,98822.38
2022-09-24T10:01:49.509Z,98831.66
2022-09-24T10:04:24.529Z,98813.63
2022-09-24T10:06:51.244Z,98826.03
2022-09-24T10:09:20.812Z,98811.63
2022-09-24T10:11:48.499Z,98814.00
2022-09-24T10:14:18.342Z,98808.84
2022-09-24T10:16:47.884Z,98809.91
2022-09-24T10:19:23.056Z,98796.97
2022-09-24T10:21:51.975Z,98801.50
2022-09-24T10:24:27.906Z,98799.03
2022-09-24T10:26:54.786Z,98799.22
2022-09-24T10:29:46.481Z,98796.69
2022-09-24T10:32:24.614Z,98804.00
2022-09-24T10:35:02.218Z,98805.88
2022-09-24T10:37:30.059Z,98811.66
2022-09-24T10:40:00.022Z,98814.09
2022-09-24T10:42:31.193Z,98811.09
2022-09-24T10:45:03.690Z,98795.25
2022-09-24T10:47:52.776Z,98803.28
2022-09-24T10:50:38.112Z,98808.06
2022-09-24T10:53:13.694Z,98802.25
2022-09-24T10:55:47.707Z,98793.19
2022-09-24T10:58:26.495Z,98801.50
2022-09-24T11:01:08.602Z,98795.22
2022-09-24T11:03:42.932Z,98797.31
2022-09-24T11:06:23.010Z,98798.84
2022-09-24T11:09:19.615Z,98787.56
2022-09-24T11:12:06.561Z,98787.22
2022-09-24T11:15:04.376Z,98793.31
2022-09-24T11:17:42.829Z,98793.28
2022-09-24T11:20:20.496Z,98778.66
2022-09-24T11:23:02.361Z,98784.88
2022-09-24T11:25:49.872Z,98772.38
2022-09-24T11:28:40.147Z,98778.03
2022-09-24T11:31:19.688Z,98758.03
2022-09-24T11:34:15.721Z,98762.47
2022-09-24T11:37:30.410Z,98773.91
2022-09-24T11:40:35.706Z,98784.50
2022-09-24T11:43:27.296Z,98777.31
2022-09-24T11:46:03.211Z,98779.31
2022-09-24T11:49:14.422Z,98769.75
2022-09-24T11:51:51.908Z,98760.75
2022-09-24T11:54:27.895Z,98768.09
2022-09-24T11:57:02.826Z,98765.66
2022-09-24T11:59:38.224Z,98763.66
2022-09-24T12:02:45.175Z,98750.56
2022-09-24T12:05:35.839Z,98761.97
2022-09-24T12:08:16.215Z,98749.34
2022-09-24T12:11:09.575Z,98756.81
2022-09-24T12:13:48.450Z,98746.28
2022-09-24T12:16:24.405Z,98728.41
2022-09-24T12:18:59.023Z,98748.84
2022-09-24T12:21:47.905Z,98720.38
2022-09-24T12:24:59.505Z,98748.44
2022-09-24T12:27:37.628Z,98736.91
2022-09-24T12:30:51.260Z,98751.09
2022-09-24T12:33:36.045Z,98749.69
2022-09-24T12:36:15.189Z,98745.13
2022-09-24T12:38:51.495Z,98722.06
2022-09-24T12:41:37.892Z,98731.47
2022-09-24T12:44:10.877Z,98742.78
2022-09-24T12:46:45.865Z,98733.47
2022-09-24T12:49:21.549Z,98742.19
2022-09-24T12:51:48.302Z,98737.09
2022-09-24T12:54:34.439Z,98743.50
2022-09-24T12:57:18.224Z,98726.81
2022-09-24T12:59:49.767Z,98739.69
2022-09-24T13:02:29.879Z,98734.66
2022-09-24T13:05:05.227Z,98743.53
2022-09-24T13:07:34.029Z,98737.81
2022-09-24T13:10:15.966Z,98735.28
2022-09-24T13:12:44.737Z,98726.91
2022-09-24T13:15:30.675Z,98735.09
2022-09-24T13:18:10.347Z,98733.84
2022-09-24T13:20:38.245Z,98723.78
2022-09-24T13:23:20.704Z,98728.19
2022-09-24T13:25:58.562Z,98716.28
2022-09-24T13:28:38.462Z,98713.13
2022-09-24T13:31:13.218Z,98725.47
2022-09-24T13:33:44.431Z,98721.06
2022-09-24T13:36:16.496Z,98722.97
2022-09-24T13:38:46.056Z,98725.69
2022-09-24T13:41:32.418Z,98695.34
2022-09-24T13:44:16.737Z,98716.06
2022-09-24T13:46:47.670Z,98717.53
2022-09-24T13:49:19.416Z,98711.25
2022-09-24T13:51:56.817Z,98703.31
2022-09-24T13:54:26.525Z,98708.31
2022-09-24T13:57:12.851Z,98704.78
2022-09-24T13:59:40.222Z,98699.34
2022-09-24T14:02:25.815Z,98679.91
2022-09-24T14:05:01.679Z,98697.44
2022-09-24T14:07:30.035Z,98684.91
2022-09-24T14:10:13.349Z,98692.00
2022-09-24T14:12:40.655Z,98699.97
2022-09-24T14:15:15.553Z,98705.19
2022-09-24T14:17:42.675Z,98668.63
2022-09-24T14:20:15.927Z,98707.69
2022-09-24T14:22:45.961Z,98700.16
2022-09-24T14:25:35.648Z,98692.63
2022-09-24T14:28:03.712Z,98715.00
2022-09-24T14:30:34.024Z,98707.66
2022-09-24T14:33:07.424Z,98665.66
2022-09-24T14:35:37.324Z,98695.34
2022-09-24T14:38:16.449Z,98711.25
2022-09-24T14:40:51.207Z,98715.00
2022-09-24T14:43:23.875Z,98684.91
2022-09-24T14:45:52.293Z,98699.94
2022-09-24T14:48:32.464Z,98705.41
2022-09-24T14:50:59.937Z,98697.03
2022-09-24T14:53:38.016Z,98719.81
2022-09-24T14:56:20.392Z,98722.22
2022-09-24T14:58:47.241Z,98718.78
2022-09-24T15:01:16.650Z,98717.34
2022-09-24T15:03:56.212Z,98716.44
2022-09-24T15:06:26.277Z,98716.06
2022-09-24T15:08:54.067Z,98719.66
2022-09-24T15:11:21.478Z,98713.13
2022-09-24T15:13:58.595Z,98726.31
2022-09-24T15:16:32.166Z,98726.03
2022-09-24T15:19:20.540Z,98728.41
2022-09-24T15:21:49.515Z,98707.25
2022-09-24T15:24:17.667Z,98727.16
2022-09-24T15:26:47.880Z,98718.38
2022-09-24T15:29:24.510Z,98723.13
2022-09-24T15:31:55.228Z,98692.66
2022-09-24T15:34:22.604Z,98712.72
2022-09-24T15:36:55.392Z,98716.78
2022-09-24T15:39:23.536Z,98721.75
2022-09-24T15:41:50.297Z,98719.13
2022-09-24T15:44:23.128Z,98686.50
2022-09-24T15:46:53.076Z,98713.41
2022-09-24T15:49:22.335Z,98729.91
2022-09-24T15:52:12.172Z,98723.13
2022-09-24T15:54:38.875Z,98721.81
2022-09-24T15:57:05.642Z,98705.88
2022-09-24T15:59:34.593Z,98715.41
2022-09-24T16:02:04.017Z,98724.50
2022-09-24T16:04:30.906Z,98706.47
2022-09-24T16:06:57.846Z,98704.59
2022-09-24T16:09:24.824Z,98711.78
2022-09-24T16:11:51.575Z,98698.72
2022-09-24T16:14:18.481Z,98721.66
2022-09-24T16:16:45.312Z,98718.22
2022-09-24T16:19:12.879Z,98724.56
2022-09-24T16:21:39.832Z,98738.00
2022-09-24T16:24:06.816Z,98732.16
2022-09-24T16:26:34.609Z,98738.31
2022-09-24T16:29:06.034Z,98726.56
2022-09-24T16:31:33.311Z,98701.91
2022-09-24T16:34:00.320Z,98731.16
2022-09-24T16:36:27.262Z,98724.84
2022-09-24T16:38:54.267Z,98733.88
2022-09-24T16:41:23.417Z,98737.13
2022-09-24T16:43:56.001Z,98733.31
2022-09-24T16:46:23.250Z,98729.69
2022-09-24T16:48:50.545Z,98737.31
2022-09-24T16:51:17.558Z,98734.75
2022-09-24T16:53:48.713Z,98733.84
2022-09-24T16:56:17.781Z,98740.34
2022-09-24T16:58:46.940Z,98734.75
2022-09-24T17:01:16.527Z,98723.97
2022-09-24T17:03:44.318Z,98741.91
2022-09-24T17:06:22.784Z,98742.50
2022-09-24T17:09:08.417Z,98746.25
2022-09-24T17:11:36.109Z,98749.13
2022-09-24T17:14:03.386Z,98750.97
2022-09-24T17:16:30.518Z,98748.66
2022-09-24T17:18:57.508Z,98752.59
2022-09-24T17:21:24.507Z,98764.41
2022-09-24T17:23:52.116Z,98762.50
2022-09-24T17:26:22.648Z,98758.44
2022-09-24T17:28:52.630Z,98746.16
2022-09-24T17:31:21.744Z,98754.09
2022-09-24T17:33:59.576Z,98759.28
2022-09-24T17:36:27.645Z,98742.00
2022-09-24T17:38:55.416Z,98751.38
2022-09-24T17:41:23.594Z,98741.50
2022-09-24T17:43:51.619Z,98756.50
2022-09-24T17:46:22.833Z,98740.66
2022-09-24T17:48:52.656Z,98756.19
2022-09-24T17:51:25.277Z,98739.59
2022-09-24T17:53:54.178Z,98736.56
2022-09-24T17:56:25.835Z,98746.72
2022-09-24T17:58:55.262Z,98734.59
2022-09-24T18:01:24.820Z,98758.47
2022-09-24T18:03:56.213Z,98755.97
2022-09-24T18:06:28.141Z,98752.47
2022-09-24T18:08:59.997Z,98747.69
2022-09-24T18:11:38.022Z,98723.19
2022-09-24T18:14:05.975Z,98732.00
2022-09-24T18:16:35.168Z,98720.25
2022-09-24T18:19:03.653Z,98734.63
2022-09-24T18:21:31.678Z,98748.06
2022-09-24T18:24:00.976Z,98764.25
2022-09-24T18:26:32.771Z,98778.78
2022-09-24T18:29:02.205Z,98773.22
2022-09-24T18:31:30.590Z,98766.97
2022-09-24T18:34:05.701Z,98750.72
2022-09-24T18:36:38.579Z,98756.59
2022-09-24T18:39:08.127Z,98764.84
2022-09-24T18:41:36.869Z,98747.34
2022-09-24T18:44:05.121Z,98754.25
2022-09-24T18:46:34.007Z,98744.50
2022-09-24T18:49:02.889Z,98752.75
2022-09-24T18:51:33.248Z,98745.19
2022-09-24T18:54:03.264Z,98762.16
2022-09-24T18:56:31.733Z,98757.47
2022-09-24T18:59:09.448Z,98764.03
2022-09-24T19:01:38.435Z,98752.56
2022-09-24T19:04:08.236Z,98761.84
2022-09-24T19:06:36.350Z,98762.88
2022-09-24T19:09:05.260Z,98754.25
2022-09-24T19:11:34.471Z,98728.06
2022-09-24T19:14:04.645Z,98752.56
2022-09-24T19:16:32.651Z,98743.47
2022-09-24T19:19:01.266Z,98754.44
2022-09-24T19:21:29.688Z,98759.47
2022-09-24T19:23:59.528Z,98749.94
2022-09-24T19:26:32.006Z,98764.59
2022-09-24T19:28:59.601Z,98753.81
2022-09-24T19:31:38.725Z,98758.81
2022-09-24T19:34:08.163Z,98754.44
2022-09-24T19:36:45.054Z,98755.44
2022-09-24T19:39:15.489Z,98749.09
2022-09-24T19:41:43.899Z,98731.78
2022-09-24T19:44:12.488Z,98746.41
2022-09-24T19:46:40.467Z,98746.59
2022-09-24T19:49:08.799Z,98744.53
2022-09-24T19:51:37.196Z,98744.38
2022-09-24T19:54:07.340Z,98741.53
2022-09-24T19:56:37.263Z,98743.75
2022-09-24T19:59:05.056Z,98771.16
2022-09-24T20:01:34.530Z,98756.03
2022-09-24T20:04:05.223Z,98775.88
2022-09-24T20:06:34.072Z,98744.78
2022-09-24T20:09:01.481Z,98767.63
2022-09-24T20:11:29.993Z,98768.13
2022-09-24T20:13:57.446Z,98764.44
2022-09-24T20:16:27.258Z,98728.81
2022-09-24T20:19:05.656Z,98763.75
2022-09-24T20:21:44.418Z,98751.66
2022-09-24T20:24:14.556Z,98706.94
2022-09-24T20:27:04.902Z,98683.56
2022-09-24T20:29:46.508Z,98753.81
2022-09-24T20:32:19.626Z,98676.19
2022-09-24T20:34:46.501Z,98675.53
2022-09-24T20:37:14.335Z,98680.38
2022-09-24T20:39:41.602Z,98716.34
2022-09-24T20:42:13.411Z,98679.56
2022-09-24T20:44:50.043Z,98685.13
2022-09-24T20:47:28.163Z,98723.09
2022-09-24T20:50:05.421Z,98674.03
2022-09-24T20:52:41.131Z,98653.19
2022-09-24T20:55:20.421Z,98730.50
2022-09-24T20:57:52.982Z,98691.84
2022-09-24T21:00:22.247Z,98751.00
2022-09-24T21:02:55.083Z,98695.19
2022-09-24T21:05:28.455Z,98654.38
2022-09-24T21:08:04.711Z,98671.31
2022-09-24T21:10:38.288Z,98684.78
2022-09-24T21:16:06.012Z,98717.72
2022-09-24T21:18:40.779Z,98731.19
2022-09-24T21:21:15.662Z,98718.91
2022-09-24T21:23:44.312Z,98714.03
2022-09-24T21:26:34.641Z,98715.53
2022-09-24T21:29:33.728Z,98684.44
2022-09-24T21:32:22.322Z,98697.38
2022-09-24T21:35:16.065Z,98682.09
2022-09-24T21:37:53.450Z,98688.63
2022-09-24T21:43:02.053Z,98682.44
2022-09-24T21:45:29.301Z,98684.94
2022-09-24T21:47:58.947Z,98779.78
2022-09-24T21:50:28.327Z,98780.13
2022-09-24T21:52:55.216Z,98778.78
2022-09-24T21:55:21.959Z,98749.00
2022-09-24T21:57:50.901Z,98735.72
2022-09-24T22:00:20.361Z,98774.91
2022-09-24T22:05:47.222Z,98707.97
2022-09-24T22:08:23.966Z,98713.19
2022-09-24T22:11:03.998Z,98701.94
2022-09-24T22:13:35.718Z,98691.34
2022-09-24T22:16:12.721Z,98757.75
2022-09-24T22:18:46.957Z,98698.88
2022-09-24T22:21:22.706Z,98711.50
2022-09-24T22:23:53.715Z,98690.31
2022-09-24T22:26:21.461Z,98697.06
2022-09-24T22:28:53.915Z,98713.03
2022-09-24T22:31:23.800Z,98718.41
2022-09-24T22:34:13.505Z,98679.91
2022-09-24T22:36:53.090Z,98685.47
2022-09-24T22:39:22.399Z,98693.16
2022-09-24T22:41:52.880Z,98738.41
2022-09-24T22:44:24.821Z,98716.03
2022-09-24T22:46:54.117Z,98690.81
2022-09-24T22:49:26.841Z,98761.47
2022-09-24T22:52:02.125Z,98681.41
2022-09-24T22:54:31.949Z,98720.94
2022-09-24T23:04:05.843Z,98733.03
2022-09-24T23:06:36.365Z,98768.69
2022-09-24T23:09:03.761Z,98765.16
2022-09-24T23:11:33.382Z,98688.44
2022-09-24T23:14:08.261Z,98785.31
2022-09-24T23:16:43.993Z,98725.78
2022-09-24T23:19:19.932Z,98755.72
2022-09-24T23:21:47.815Z,98759.75
2022-09-24T23:24:20.154Z,98787.34
2022-09-24T23:26:51.370Z,98782.28
2022-09-24T23:29:27.580Z,98733.53
2022-09-24T23:31:54.875Z,98724.47
2022-09-24T23:34:21.999Z,98702.56
2022-09-24T23:36:49.410Z,98705.25
2022-09-24T23:39:16.523Z,98753.88
2022-09-24T23:41:44.862Z,98706.63
2022-09-24T23:44:12.457Z,98762.28
2022-09-24T23:46:45.721Z,98753.72
2022-09-24T23:49:12.817Z,98757.56
2022-09-24T23:51:42.595Z,98742.94
2022-09-24T23:54:09.370Z,98775.41
2022-09-24T23:56:38.856Z,98754.53
2022-09-24T23:59:06.087Z,98763.59
